createdAt,value
2019-04-26T00:02:00.109Z,2.67
2019-04-26T00:04:31.334Z,13.97
2019-04-26T00:07:02.009Z,9.30
2019-04-26T00:09:40.050Z,14.63
2019-04-26T00:12:32.870Z,8.33
2019-04-26T00:15:31.369Z,25.73
2019-04-26T00:18:02.201Z,29.47
2019-04-26T00:20:32.836Z,33.67
2019-04-26T00:23:03.409Z,54.70
2019-04-26T00:25:36.199Z,56.90
2019-04-26T00:28:07.806Z,25.57
2019-04-26T00:30:38.261Z,52.77
2019-04-26T00:33:08.716Z,28.37
2019-04-26T00:35:47.429Z,58.80
2019-04-26T00:38:11.644Z,43.80
2019-04-26T00:40:44.256Z,32.13
2019-04-26T00:43:16.312Z,17.10
2019-04-26T00:45:47.029Z,21.87
2019-04-26T00:48:18.991Z,3.60
2019-04-26T00:50:52.155Z,4.83
2019-04-26T00:53:24.518Z,2.77
2019-04-26T00:55:55.769Z,1.03
2019-04-26T00:58:26.905Z,9.17
2019-04-26T01:00:57.422Z,4.03
2019-04-26T01:03:27.819Z,4.43
2019-04-26T01:06:00.441Z,3.20
2019-04-26T01:08:31.004Z,6.30
2019-04-26T01:11:01.545Z,5.80
2019-04-26T01:13:32.185Z,4.93
2019-04-26T01:16:02.540Z,5.37
2019-04-26T01:18:33.912Z,2.33
2019-04-26T01:21:06.457Z,4.63
2019-04-26T01:23:39.576Z,2.80
2019-04-26T01:26:21.155Z,3.43
2019-04-26T01:29:12.180Z,1.57
2019-04-26T01:31:54.937Z,4.80
2019-04-26T01:34:26.221Z,4.37
2019-04-26T01:36:59.144Z,4.80
2019-04-26T01:39:29.654Z,6.07
2019-04-26T01:42:15.367Z,3.70
2019-04-26T01:44:53.287Z,5.10
2019-04-26T01:47:24.225Z,1.67
2019-04-26T01:49:54.838Z,8.40
2019-04-26T01:52:25.730Z,3.90
2019-04-26T01:54:56.489Z,3.30
2019-04-26T01:57:29.692Z,5.10
2019-04-26T02:00:21.182Z,4.80
2019-04-26T02:02:56.810Z,6.53
2019-04-26T02:05:28.025Z,2.50
2019-04-26T02:07:59.339Z,4.30
2019-04-26T02:10:30.826Z,6.87
2019-04-26T02:13:01.700Z,6.50
2019-04-26T02:15:34.435Z,5.40
2019-04-26T02:18:05.438Z,3.20
2019-04-26T02:21:17.755Z,5.70
2019-04-26T02:23:55.499Z,15.77
2019-04-26T02:26:34.673Z,5.53
2019-04-26T02:29:09.182Z,7.37
2019-04-26T02:31:42.190Z,6.73
2019-04-26T02:34:13.070Z,6.97
2019-04-26T02:36:57.057Z,3.83
2019-04-26T02:39:19.456Z,6.50
2019-04-26T02:41:53.186Z,4.57
2019-04-26T02:44:30.701Z,4.77
2019-04-26T02:47:28.960Z,4.53
2019-04-26T02:50:04.563Z,4.93
2019-04-26T02:53:01.071Z,9.80
2019-04-26T02:56:01.317Z,4.93
2019-04-26T02:58:37.689Z,6.07
2019-04-26T03:01:08.680Z,5.83
2019-04-26T03:03:39.746Z,4.17
2019-04-26T03:06:13.240Z,3.37
2019-04-26T03:08:43.942Z,4.80
2019-04-26T03:11:18.338Z,5.87
2019-04-26T03:14:16.726Z,7.00
2019-04-26T03:17:21.411Z,5.63
2019-04-26T03:20:01.839Z,8.60
2019-04-26T03:23:15.722Z,5.43
2019-04-26T03:25:55.130Z,11.23
2019-04-26T03:28:37.660Z,6.83
2019-04-26T03:31:47.992Z,6.33
2019-04-26T03:34:25.492Z,6.33
2019-04-26T03:37:21.090Z,6.93
2019-04-26T03:40:03.222Z,11.50
2019-04-26T03:42:56.911Z,7.43
2019-04-26T03:45:48.774Z,6.43
2019-04-26T03:48:52.407Z,7.57
2019-04-26T03:51:35.716Z,9.83
2019-04-26T03:54:13.612Z,7.63
2019-04-26T03:57:25.080Z,17.87
2019-04-26T04:00:43.364Z,24.90
2019-04-26T04:03:43.069Z,14.77
2019-04-26T04:06:18.483Z,16.90
2019-04-26T04:08:57.374Z,15.53
2019-04-26T04:11:36.428Z,13.93
2019-04-26T04:14:18.113Z,15.13
2019-04-26T04:17:24.438Z,16.20
2019-04-26T04:20:24.967Z,22.27
2019-04-26T04:23:02.216Z,15.87
2019-04-26T04:25:37.980Z,15.30
2019-04-26T04:28:46.518Z,11.07
2019-04-26T04:31:23.953Z,14.57
2019-04-26T04:34:26.879Z,14.50
2019-04-26T04:37:00.781Z,19.50
2019-04-26T04:40:10.080Z,17.80
2019-04-26T04:42:57.591Z,19.03
2019-04-26T04:46:30.614Z,18.70
2019-04-26T04:49:41.219Z,15.90
2019-04-26T04:52:52.058Z,16.20
2019-04-26T04:55:39.235Z,16.27
2019-04-26T04:58:22.914Z,16.47
2019-04-26T05:01:48.304Z,24.33
2019-04-26T05:04:29.085Z,15.47
2019-04-26T05:07:25.961Z,17.87
2019-04-26T05:10:13.652Z,17.83
2019-04-26T05:13:06.647Z,23.17
2019-04-26T05:15:57.487Z,25.73
2019-04-26T05:19:24.872Z,21.30
2019-04-26T05:22:25.057Z,26.90
2019-04-26T05:25:43.827Z,25.77
2019-04-26T05:28:40.315Z,26.03
2019-04-26T05:31:24.754Z,24.23
2019-04-26T05:34:31.057Z,27.27
2019-04-26T05:37:14.430Z,21.87
2019-04-26T05:40:08.911Z,24.20
2019-04-26T05:43:21.421Z,26.70
2019-04-26T05:46:42.455Z,24.70
2019-04-26T05:49:53.795Z,25.90
2019-04-26T05:53:05.197Z,28.70
2019-04-26T05:56:38.882Z,24.30
2019-04-26T05:59:34.513Z,26.80
2019-04-26T06:02:55.321Z,25.87
2019-04-26T06:06:04.273Z,32.93
2019-04-26T06:09:17.816Z,32.60
2019-04-26T06:11:59.477Z,31.80
2019-04-26T06:15:15.931Z,42.73
2019-04-26T06:18:10.965Z,48.33
2019-04-26T06:21:05.805Z,27.17
2019-04-26T06:24:22.502Z,28.30
2019-04-26T06:27:40.558Z,46.83
2019-04-26T06:30:18.346Z,25.90
2019-04-26T06:33:20.533Z,32.47
2019-04-26T06:35:55.789Z,26.33
2019-04-26T06:38:58.377Z,32.50
2019-04-26T06:42:12.952Z,34.77
2019-04-26T06:45:29.922Z,25.67
2019-04-26T06:48:10.335Z,24.37
2019-04-26T06:50:46.886Z,20.33
2019-04-26T06:53:46.082Z,23.47
2019-04-26T06:56:41.227Z,21.30
2019-04-26T06:59:53.567Z,22.97
2019-04-26T07:02:34.346Z,24.03
2019-04-26T07:05:24.083Z,18.87
2019-04-26T07:08:40.542Z,21.33
2019-04-26T07:12:05.181Z,16.67
2019-04-26T07:15:27.947Z,24.23
2019-04-26T07:18:35.328Z,19.97
2019-04-26T07:21:29.450Z,15.37
2019-04-26T07:24:28.917Z,20.80
2019-04-26T07:27:28.251Z,19.83
2019-04-26T07:30:27.767Z,17.50
2019-04-26T07:33:51.466Z,25.93
2019-04-26T07:36:50.146Z,17.57
2019-04-26T07:39:42.207Z,16.07
2019-04-26T07:43:01.907Z,19.63
2019-04-26T07:46:24.936Z,22.93
2019-04-26T07:49:47.037Z,11.93
2019-04-26T07:52:54.390Z,14.70
2019-04-26T07:56:09.705Z,15.43
2019-04-26T07:59:31.972Z,21.63
2019-04-26T08:02:40.592Z,16.80
2019-04-26T08:05:27.477Z,21.90
2019-04-26T08:08:01.172Z,20.07
2019-04-26T08:10:35.227Z,25.60
2019-04-26T08:13:10.104Z,22.70
2019-04-26T08:16:10.528Z,16.93
2019-04-26T08:18:58.726Z,23.00
2019-04-26T08:21:34.772Z,13.53
2019-04-26T08:24:28.443Z,14.93
2019-04-26T08:27:24.273Z,23.47
2019-04-26T08:30:03.341Z,14.53
2019-04-26T08:32:39.769Z,14.40
2019-04-26T08:35:21.893Z,13.43
2019-04-26T08:37:57.450Z,14.70
2019-04-26T08:40:31.402Z,14.73
2019-04-26T08:43:22.593Z,18.03
2019-04-26T08:46:47.813Z,12.50
2019-04-26T08:49:35.094Z,16.47
2019-04-26T08:52:14.215Z,16.23
2019-04-26T08:54:50.698Z,19.10
2019-04-26T08:57:32.823Z,23.27
2019-04-26T09:00:06.598Z,17.10
2019-04-26T09:03:10.777Z,15.87
2019-04-26T09:05:59.751Z,19.67
2019-04-26T09:08:39.170Z,17.27
2019-04-26T09:11:23.703Z,17.33
2019-04-26T09:13:49.894Z,17.93
2019-04-26T09:16:21.662Z,14.70
2019-04-26T09:18:55.147Z,17.63
2019-04-26T09:21:34.651Z,19.23
2019-04-26T09:24:30.378Z,15.27
2019-04-26T09:27:09.492Z,13.47
2019-04-26T09:29:48.536Z,21.03
2019-04-26T09:32:58.239Z,16.07
2019-04-26T09:35:28.191Z,12.47
2019-04-26T09:37:59.096Z,14.50
2019-04-26T09:40:29.842Z,20.37
2019-04-26T09:43:28.313Z,14.80
2019-04-26T09:46:35.813Z,15.37
2019-04-26T09:49:11.951Z,15.47
2019-04-26T09:51:42.793Z,14.30
2019-04-26T09:54:15.377Z,18.00
2019-04-26T09:56:46.315Z,26.53
2019-04-26T09:59:18.043Z,15.77
2019-04-26T10:01:49.410Z,11.30
2019-04-26T10:04:20.259Z,29.00
2019-04-26T10:06:51.128Z,15.57
2019-04-26T10:09:26.730Z,12.33
2019-04-26T10:12:04.137Z,9.33
2019-04-26T10:14:42.579Z,9.77
2019-04-26T10:17:17.844Z,10.67
2019-04-26T10:19:53.798Z,8.23
2019-04-26T10:22:27.432Z,9.30
2019-04-26T10:25:02.388Z,12.97
2019-04-26T10:27:32.568Z,10.50
2019-04-26T10:30:09.059Z,10.87
2019-04-26T10:32:38.399Z,10.83
2019-04-26T10:35:09.869Z,10.53
2019-04-26T10:37:43.930Z,13.60
2019-04-26T10:40:14.441Z,15.00
2019-04-26T10:42:48.474Z,15.70
2019-04-26T10:45:22.000Z,16.13
2019-04-26T10:47:53.856Z,18.90
2019-04-26T10:50:24.678Z,17.00
2019-04-26T10:53:25.755Z,20.37
2019-04-26T10:56:14.102Z,14.80
2019-04-26T10:58:51.769Z,17.50
2019-04-26T11:01:23.482Z,38.90
2019-04-26T11:03:54.757Z,51.80
2019-04-26T11:06:27.947Z,37.67
2019-04-26T11:08:58.273Z,18.60
2019-04-26T11:11:30.024Z,20.77
2019-04-26T11:14:00.956Z,11.90
2019-04-26T11:16:49.937Z,15.70
2019-04-26T11:19:20.865Z,10.03
2019-04-26T11:21:54.835Z,12.47
2019-04-26T11:24:25.738Z,15.10
2019-04-26T11:26:57.239Z,12.10
2019-04-26T11:29:28.818Z,11.80
2019-04-26T11:32:18.325Z,11.90
2019-04-26T11:34:49.566Z,11.77
2019-04-26T11:37:20.737Z,12.53
2019-04-26T11:39:52.030Z,10.77
2019-04-26T11:42:23.272Z,9.93
2019-04-26T11:45:05.756Z,16.50
2019-04-26T11:47:27.167Z,17.30
2019-04-26T11:49:57.913Z,13.03
2019-04-26T11:52:32.082Z,13.33
2019-04-26T11:55:01.014Z,13.73
2019-04-26T11:57:33.346Z,12.13
2019-04-26T12:00:06.670Z,12.43
2019-04-26T12:02:38.460Z,15.40
2019-04-26T12:05:45.490Z,13.53
2019-04-26T12:08:23.041Z,11.07
2019-04-26T12:10:55.978Z,11.67
2019-04-26T12:13:26.729Z,13.07
2019-04-26T12:15:58.700Z,10.67
2019-04-26T12:18:29.947Z,11.47
2019-04-26T12:21:05.764Z,12.10
2019-04-26T12:23:36.469Z,13.33
2019-04-26T12:26:07.609Z,15.23
2019-04-26T12:28:39.997Z,12.53
2019-04-26T12:31:11.603Z,12.40
2019-04-26T12:33:43.668Z,12.73
2019-04-26T12:36:17.448Z,17.33
2019-04-26T12:38:52.893Z,18.13
2019-04-26T12:41:39.472Z,16.93
2019-04-26T12:43:59.577Z,17.07
2019-04-26T12:46:59.418Z,17.83
2019-04-26T12:49:30.592Z,12.37
2019-04-26T12:52:02.841Z,17.10
2019-04-26T12:54:39.007Z,15.77
2019-04-26T12:57:09.323Z,14.27
2019-04-26T12:59:44.489Z,15.27
2019-04-26T13:02:16.571Z,16.07
2019-04-26T13:04:48.566Z,18.90
2019-04-26T13:07:23.933Z,17.47
2019-04-26T13:10:11.984Z,17.50
2019-04-26T13:12:57.659Z,18.87
2019-04-26T13:16:12.739Z,18.23
2019-04-26T13:18:45.352Z,18.93
2019-04-26T13:21:17.762Z,20.73
2019-04-26T13:23:49.004Z,24.60
2019-04-26T13:26:21.595Z,24.80
2019-04-26T13:28:57.125Z,23.37
2019-04-26T13:31:31.704Z,24.77
2019-04-26T13:34:03.052Z,22.40
2019-04-26T13:36:35.018Z,25.97
2019-04-26T13:39:13.420Z,29.57
2019-04-26T13:41:43.752Z,29.10
2019-04-26T13:44:16.840Z,27.63
2019-04-26T13:47:15.553Z,33.13
2019-04-26T13:50:01.252Z,34.87
2019-04-26T13:52:32.285Z,33.97
2019-04-26T13:55:03.665Z,34.97
2019-04-26T13:57:35.166Z,40.23
2019-04-26T14:00:07.641Z,40.30
2019-04-26T14:02:39.985Z,40.13
2019-04-26T14:05:15.307Z,41.93
2019-04-26T14:07:45.301Z,42.00
2019-04-26T14:10:17.955Z,47.43
2019-04-26T14:12:50.020Z,39.90
2019-04-26T14:15:22.514Z,47.57
2019-04-26T14:17:54.102Z,43.43
2019-04-26T14:20:26.827Z,44.63
2019-04-26T14:23:11.353Z,44.90
2019-04-26T14:25:55.642Z,50.10
2019-04-26T14:28:27.374Z,47.30
2019-04-26T14:30:58.706Z,49.60
2019-04-26T14:33:30.839Z,51.33
2019-04-26T14:36:02.190Z,44.93
2019-04-26T14:38:40.029Z,47.97
2019-04-26T14:41:21.822Z,48.00
2019-04-26T14:43:56.773Z,52.97
2019-04-26T14:46:26.189Z,48.10
2019-04-26T14:49:02.094Z,43.30
2019-04-26T14:51:31.139Z,46.87
2019-04-26T14:54:02.834Z,48.93
2019-04-26T14:56:34.846Z,52.83
2019-04-26T14:59:10.271Z,52.73
2019-04-26T15:02:12.955Z,57.30
2019-04-26T15:04:49.235Z,52.90
2019-04-26T15:07:22.241Z,54.50
2019-04-26T15:09:56.048Z,60.13
2019-04-26T15:12:28.714Z,59.10
2019-04-26T15:15:04.135Z,56.07
2019-04-26T15:17:36.208Z,62.53
2019-04-26T15:20:08.724Z,60.40
2019-04-26T15:22:48.528Z,63.00
2019-04-26T15:25:21.978Z,59.10
2019-04-26T15:27:53.840Z,65.23
2019-04-26T15:30:25.741Z,55.47
2019-04-26T15:32:59.125Z,59.03
2019-04-26T15:35:34.237Z,58.97
2019-04-26T15:38:08.070Z,60.10
2019-04-26T15:40:57.385Z,58.37
2019-04-26T15:44:02.731Z,56.80
2019-04-26T15:46:55.401Z,55.50
2019-04-26T15:49:50.154Z,57.23
2019-04-26T15:52:22.209Z,57.83
2019-04-26T15:55:04.203Z,59.93
2019-04-26T15:57:37.903Z,57.90
2019-04-26T16:00:12.455Z,65.07
2019-04-26T16:02:44.764Z,68.60
2019-04-26T16:05:17.044Z,64.53
2019-04-26T16:07:52.884Z,67.73
2019-04-26T16:10:29.569Z,71.80
2019-04-26T16:13:01.270Z,72.20
2019-04-26T16:15:33.336Z,72.47
2019-04-26T16:18:06.352Z,67.93
2019-04-26T16:20:39.387Z,75.27
2019-04-26T16:23:13.305Z,74.57
2019-04-26T16:25:43.814Z,77.43
2019-04-26T16:28:33.295Z,78.60
2019-04-26T16:31:17.350Z,78.17
2019-04-26T16:33:49.909Z,79.73
2019-04-26T16:36:21.892Z,81.77
2019-04-26T16:38:56.644Z,77.33
2019-04-26T16:41:33.881Z,82.40
2019-04-26T16:44:02.760Z,80.97
2019-04-26T16:46:38.356Z,79.30
2019-04-26T16:49:12.416Z,83.83
2019-04-26T16:51:43.589Z,87.97
2019-04-26T16:54:20.868Z,88.03
2019-04-26T16:56:48.322Z,85.37
2019-04-26T16:59:26.751Z,84.63
2019-04-26T17:02:01.429Z,88.80
2019-04-26T17:04:32.302Z,88.47
2019-04-26T17:07:05.013Z,85.30
2019-04-26T17:09:54.360Z,81.10
2019-04-26T17:12:10.591Z,84.23
2019-04-26T17:14:47.714Z,86.37
2019-04-26T17:17:14.619Z,88.80
2019-04-26T17:19:45.420Z,89.60
2019-04-26T17:22:44.176Z,83.77
2019-04-26T17:25:32.146Z,86.60
2019-04-26T17:28:03.419Z,89.03
2019-04-26T17:30:41.075Z,91.30
2019-04-26T17:33:07.325Z,92.60
2019-04-26T17:35:41.041Z,91.07
2019-04-26T17:38:11.563Z,86.03
2019-04-26T17:40:42.832Z,86.93
2019-04-26T17:43:14.966Z,91.77
2019-04-26T17:45:45.670Z,88.03
2019-04-26T17:48:16.395Z,80.10
2019-04-26T17:50:47.154Z,83.37
2019-04-26T17:53:28.498Z,80.00
2019-04-26T17:55:54.739Z,81.53
2019-04-26T17:58:31.094Z,85.37
2019-04-26T18:00:56.550Z,79.33
2019-04-26T18:03:28.808Z,82.80
2019-04-26T18:06:01.693Z,83.00
2019-04-26T18:08:38.861Z,78.77
2019-04-26T18:11:05.111Z,84.00
2019-04-26T18:13:35.903Z,79.27
2019-04-26T18:16:06.536Z,82.53
2019-04-26T18:19:02.595Z,78.47
2019-04-26T18:21:49.512Z,81.20
2019-04-26T18:24:21.381Z,84.10
2019-04-26T18:26:59.138Z,80.30
2019-04-26T18:29:29.272Z,77.97
2019-04-26T18:31:59.178Z,80.00
2019-04-26T18:34:37.180Z,79.70
2019-04-26T18:37:06.887Z,81.73
2019-04-26T18:39:38.866Z,80.17
2019-04-26T18:42:10.281Z,89.17
2019-04-26T18:44:47.353Z,83.00
2019-04-26T18:47:26.284Z,85.00
2019-04-26T18:49:58.110Z,84.30
2019-04-26T18:52:29.959Z,91.33
2019-04-26T18:55:21.589Z,81.50
2019-04-26T18:57:54.766Z,86.67
2019-04-26T19:00:35.401Z,87.30
2019-04-26T19:03:08.647Z,81.80
2019-04-26T19:05:39.883Z,81.87
2019-04-26T19:08:12.771Z,82.77
2019-04-26T19:10:44.570Z,84.03
2019-04-26T19:13:53.146Z,90.20
2019-04-26T19:16:42.435Z,80.90
2019-04-26T19:19:32.928Z,83.60
2019-04-26T19:22:05.086Z,87.57
2019-04-26T19:24:38.639Z,90.10
2019-04-26T19:27:12.472Z,90.37
2019-04-26T19:29:43.765Z,86.47
2019-04-26T19:32:14.992Z,86.67
2019-04-26T19:34:46.990Z,92.57
2019-04-26T19:37:18.673Z,86.80
2019-04-26T19:39:54.292Z,87.13
2019-04-26T19:42:27.088Z,88.00
2019-04-26T19:45:11.971Z,86.33
2019-04-26T19:47:55.447Z,87.20
2019-04-26T19:50:57.259Z,80.57
2019-04-26T19:53:39.590Z,86.63
2019-04-26T19:56:17.510Z,88.73
2019-04-26T19:58:50.817Z,89.00
2019-04-26T20:01:21.023Z,89.07
2019-04-26T20:04:11.255Z,81.67
2019-04-26T20:06:42.736Z,86.57
2019-04-26T20:09:17.597Z,92.17
2019-04-26T20:11:51.402Z,87.80
2019-04-26T20:14:19.525Z,88.03
2019-04-26T20:16:52.081Z,87.80
2019-04-26T20:19:34.342Z,102.07
2019-04-26T20:21:57.290Z,84.63
2019-04-26T20:24:28.251Z,85.33
2019-04-26T20:26:58.962Z,96.00
2019-04-26T20:29:29.770Z,96.33
2019-04-26T20:32:23.746Z,87.70
2019-04-26T20:35:04.926Z,95.70
2019-04-26T20:37:35.765Z,86.87
2019-04-26T20:40:21.712Z,84.37
2019-04-26T20:42:47.965Z,89.17
2019-04-26T20:45:22.143Z,90.63
2019-04-26T20:47:55.656Z,94.50
2019-04-26T20:50:28.622Z,91.67
2019-04-26T20:53:00.567Z,89.70
2019-04-26T20:55:30.396Z,87.77
2019-04-26T20:58:05.736Z,88.50
2019-04-26T21:00:36.497Z,98.00
2019-04-26T21:03:06.353Z,94.03
2019-04-26T21:05:45.709Z,92.83
2019-04-26T21:08:12.205Z,88.33
2019-04-26T21:10:43.732Z,95.17
2019-04-26T21:13:14.479Z,89.40
2019-04-26T21:15:55.994Z,89.33
2019-04-26T21:18:17.323Z,93.00
2019-04-26T21:20:47.931Z,85.03
2019-04-26T21:23:19.157Z,96.93
2019-04-26T21:26:17.517Z,85.67
2019-04-26T21:29:15.458Z,93.87
2019-04-26T21:32:08.532Z,96.83
2019-04-26T21:34:40.719Z,88.83
2019-04-26T21:37:41.064Z,87.93
2019-04-26T21:40:26.246Z,97.53
2019-04-26T21:42:59.438Z,105.77
2019-04-26T21:45:31.005Z,104.17
2019-04-26T21:48:02.736Z,109.60
2019-04-26T21:50:38.624Z,101.40
2019-04-26T21:53:07.005Z,110.70
2019-04-26T21:55:39.233Z,101.37
2019-04-26T21:58:19.207Z,94.80
2019-04-26T22:01:11.118Z,102.43
2019-04-26T22:03:47.401Z,100.70
2019-04-26T22:06:14.577Z,104.43
2019-04-26T22:08:55.674Z,102.07
2019-04-26T22:11:28.102Z,91.63
2019-04-26T22:14:20.104Z,104.57
2019-04-26T22:16:57.538Z,110.47
2019-04-26T22:19:46.480Z,109.83
2019-04-26T22:22:23.245Z,102.53
2019-04-26T22:24:55.521Z,119.23
2019-04-26T22:27:26.338Z,119.17
2019-04-26T22:29:57.158Z,134.70
2019-04-26T22:32:27.875Z,133.00
2019-04-26T22:34:58.510Z,142.80
2019-04-26T22:37:29.853Z,148.83
2019-04-26T22:40:00.851Z,148.20
2019-04-26T22:42:41.634Z,146.23
2019-04-26T22:45:29.002Z,133.10
2019-04-26T22:48:03.388Z,141.17
2019-04-26T22:50:35.228Z,132.07
2019-04-26T22:53:05.914Z,126.73
2019-04-26T22:55:36.719Z,126.57
2019-04-26T22:58:10.193Z,124.97
2019-04-26T23:00:40.910Z,132.43
2019-04-26T23:03:13.596Z,124.23
2019-04-26T23:05:44.035Z,111.13
2019-04-26T23:08:16.054Z,115.93
2019-04-26T23:10:49.511Z,110.30
2019-04-26T23:13:42.934Z,98.13
2019-04-26T23:16:25.060Z,125.03
2019-04-26T23:19:06.842Z,122.43
2019-04-26T23:21:44.257Z,140.80
2019-04-26T23:24:15.916Z,130.17
2019-04-26T23:26:45.287Z,157.90
2019-04-26T23:29:18.834Z,156.20
2019-04-26T23:31:48.377Z,150.17
2019-04-26T23:34:18.860Z,137.87
2019-04-26T23:36:50.242Z,144.60
2019-04-26T23:39:24.855Z,144.50
2019-04-26T23:41:55.437Z,146.67
2019-04-26T23:44:25.914Z,150.07
2019-04-26T23:47:01.301Z,152.83
2019-04-26T23:49:28.646Z,164.40
2019-04-26T23:51:59.194Z,167.23
2019-04-26T23:54:32.244Z,149.20
2019-04-26T23:57:02.916Z,132.37
2019-04-26T23:59:33.774Z,132.67
